Nearby METAR Reports

 

KOXC - Oxford/Waterbury, Connecticut, USA
Distance from station: SE 8mi, 12km
Updated: Sun, 24-Jul-2016 7:55am EDT
Partly cloudy
Partly cloudy
 Wind from N
Wind: N 9 mph , 15 km/h
Temperature: 72°F , 22°C
Dew Point: 59°F , 15°C
Humidity: 65%
Barometer: 30.01 inHg , 1016.3 hPa
Clouds: Partly cloudy
Visibility: 10 miles , 16 km
Cloud details: Partly cloudy 25000 ft
2016/07/24 11:55 KOXC 241155Z 36008KT 10SM SCT250 22/15 A3001
KDXR - Danbury, Connecticut, USA
Distance from station: SW 19mi, 30km
Updated: Sun, 24-Jul-2016 7:53am EDT
Clear
Clear
 Wind from N
Wind: N 7 mph , 11 km/h
Temperature: 75°F , 24°C
Dew Point: 61°F , 16°C
Humidity: 61%
Barometer: 30.01 inHg , 1016.3 hPa
Clouds: Clear
Visibility: 10 miles , 16 km
2016/07/24 11:53 KDXR 241153Z 35006KT 10SM CLR 24/16 A3001 RMK AO2 SLP157 T02440161 10244 20167 51014
 
KMMK - Meriden, Connecticut, USA
Distance from station: E 20mi, 33km
Updated: Sun, 24-Jul-2016 7:53am EDT
Clear
Clear
 Wind from varies
Wind: varies 5 mph , 7 km/h
Temperature: 75°F , 24°C
Dew Point: 61°F , 16°C
Humidity: 61%
Barometer: 29.99 inHg , 1015.6 hPa
Clouds: Clear
Visibility: 10 miles , 16 km
2016/07/24 11:53 KMMK 241153Z AUTO VRB04KT 10SM CLR 24/16 A2999 RMK AO2 SLP152 T02390161 10239 20178 53016 TSNO
KBDR - Bridgeport, Connecticut, USA
Distance from station: S 27mi, 44km
Updated: Sun, 24-Jul-2016 7:52am EDT
Clear
Clear
 Wind from N
Wind: N 12 mph , 19 km/h
Temperature: 77°F , 25°C
Dew Point: 63°F , 17°C
Humidity: 61%
Barometer: 29.97 inHg , 1014.9 hPa
Clouds: Clear
Visibility: 10 miles , 16 km
2016/07/24 11:52 KBDR 241152Z 36010KT 10SM CLR 25/17 A2997 RMK AO2 SLP148 T02500167 10250 20228 51015
 
KHVN - New Haven/Tweed, Connecticut, USA
Distance from station: SE 27mi, 44km
Updated: Sun, 24-Jul-2016 7:53am EDT
Clear
Clear
 Wind from N
Wind: N 8 mph , 13 km/h
Temperature: 75°F , 24°C
Dew Point: 61°F , 16°C
Humidity: 61%
Barometer: 29.98 inHg , 1015.2 hPa
Clouds: Clear
Visibility: 10 miles , 16 km
2016/07/24 11:53 KHVN 241153Z 35007KT 10SM CLR 24/16 A2998 RMK AO2 SLP150 T02390161 10239 20194 51014
KHFD - Hartford/Brainar, Connecticut, USA
Distance from station: ENE 32mi, 52km
Updated: Sun, 24-Jul-2016 7:53am EDT
Clear
Clear
 Wind from E
Wind: E 3 mph , 6 km/h
Temperature: 73°F , 23°C
Dew Point: 64°F , 18°C
Humidity: 74%
Barometer: 29.98 inHg , 1015.2 hPa
Clouds: Clear
Visibility: 10 miles , 16 km
2016/07/24 11:53 KHFD 241153Z 09003KT 10SM CLR 23/18 A2998 RMK AO2 SLP152 T02330178 10233 20194 53017 $
 
KPOU - Poughkeepsie, New York, USA
Distance from station: W 35mi, 56km
Updated: Sun, 24-Jul-2016 7:53am EDT
Clear
Clear
 Wind from calm
Wind: Calm
Temperature: 73°F , 23°C
Dew Point: 63°F , 17°C
Humidity: 69%
Barometer: 30.00 inHg , 1015.9 hPa
Clouds: Clear
Visibility: 10 miles , 16 km
2016/07/24 11:53 KPOU 241153Z 00000KT 10SM CLR 23/17 A3000 RMK AO2 SLP153 T02280167 10228 20167 51013
KBDL - Windsor Locks, Connecticut, USA
Distance from station: NE 38mi, 62km
Updated: Sun, 24-Jul-2016 7:51am EDT
Few Clouds
Few Clouds
 Wind from calm
Wind: Calm
Temperature: 73°F , 23°C
Dew Point: 61°F , 16°C
Humidity: 65%
Barometer: 29.98 inHg , 1015.2 hPa
Clouds: Few Clouds
Visibility: 10 miles , 16 km
Cloud details: Few Clouds 22000 ft
Few Clouds 25000 ft
2016/07/24 11:51 KBDL 241151Z 00000KT 10SM FEW220 FEW250 23/16 A2998 RMK AO2 SLP150 T02330156 10233 20167 53017 $
 
KSNC - Chester, Connecticut, USA
Distance from station: ESE 39mi, 63km
Updated: Sun, 24-Jul-2016 8:35am EDT
Clear
Clear
 Wind from N
Wind: N 7 mph , 11 km/h, Gust: 14 mph , 22 km/h
Temperature: 77°F , 25°C
Dew Point: 61°F , 16°C
Humidity: 57%
Barometer: 29.99 inHg , 1015.6 hPa
Clouds: Clear
Visibility: 10 miles , 16 km
2016/07/24 12:35 KSNC 241235Z AUTO 35006G12KT 10SM CLR 25/16 A2999 RMK AO2
KHPN - White Plains, New York, USA
Distance from station: SW 42mi, 67km
Updated: Sun, 24-Jul-2016 7:56am EDT
Clear
Clear
 Wind from WNW
Wind: WNW 7 mph , 11 km/h
Temperature: 75°F , 24°C
Dew Point: 63°F , 17°C
Humidity: 65%
Barometer: 29.99 inHg , 1015.6 hPa
Clouds: Clear
Visibility: 10 miles , 16 km
2016/07/24 11:56 KHPN 241156Z 30006KT 10SM CLR 24/17 A2999 RMK AO2 SLP147 T02390167 10239 20194 51014
 
KSWF - Newburgh/Stewart, New York, USA
Distance from station: W 45mi, 72km
Updated: Sun, 24-Jul-2016 8:45am EDT
Clear
Clear
 Wind from calm
Wind: Calm
Temperature: 73°F , 23°C
Dew Point: 64°F , 18°C
Humidity: 74%
Barometer: 30.03 inHg , 1016.9 hPa
Clouds: Clear
Visibility: 20 miles , 32 km
2016/07/24 12:45 KSWF 241245Z 00000KT 20SM SKC 23/18 A3003
KBAF - Westfield, Massachusetts, USA
Distance from station: NNE 50mi, 80km
Updated: Sun, 24-Jul-2016 7:53am EDT
Clear
Clear
 Wind from calm
Wind: Calm
Temperature: 73°F , 23°C
Dew Point: 61°F , 16°C
Humidity: 65%
Barometer: 29.99 inHg , 1015.6 hPa
Clouds: Clear
Visibility: 10 miles , 16 km
2016/07/24 11:53 KBAF 241153Z 00000KT 10SM CLR 23/16 A2999 RMK AO2 SLP151 T02330156 10233 20161 53018